Time;durP1;ratioP1;P1;durP2;ratioP2;P2;SDS_P1;SDS_P2;PMS_P1;PMS_P2;Temp;Humidity;BMP_temperature;BMP_pressure;BME280_temperature;BME280_humidity;BME280_pressure;Samples;Min_cycle;Max_cycle;Signal;HPM_P1;HPM_P2
2023/07/05 00:00:59;;;;;;;11.55;3.65;;;14.80;89.60;;;;;;5058425;28;20052;-44
2023/07/05 00:03:26;;;;;;;5.90;2.63;;;14.80;89.50;;;;;;5076269;28;20013;-45
2023/07/05 00:05:53;;;;;;;10.00;3.83;;;14.80;89.60;;;;;;5069275;28;20033;-45
2023/07/05 00:08:22;;;;;;;11.68;3.95;;;14.80;89.90;;;;;;5055960;28;20055;-48
2023/07/05 00:10:50;;;;;;;10.75;3.47;;;14.80;89.80;;;;;;5069578;28;20032;-48
2023/07/05 00:13:16;;;;;;;8.45;3.42;;;14.80;90.10;;;;;;5062078;28;20029;-47
2023/07/05 00:15:47;;;;;;;11.70;4.03;;;14.80;90.10;;;;;;5056783;28;20029;-48
2023/07/05 00:18:14;;;;;;;13.45;3.67;;;14.80;90.40;;;;;;5056531;28;20633;-47
2023/07/05 00:20:41;;;;;;;7.68;3.17;;;14.70;90.20;;;;;;5038239;28;20128;-46
2023/07/05 00:23:06;;;;;;;8.52;2.80;;;14.70;90.20;;;;;;5055618;28;20021;-46
2023/07/05 00:25:33;;;;;;;13.70;4.05;;;14.70;90.20;;;;;;5057172;28;20086;-46
2023/07/05 00:28:02;;;;;;;10.43;3.28;;;14.70;90.20;;;;;;5063957;28;20022;-46
2023/07/05 00:30:29;;;;;;;12.33;4.60;;;14.70;90.20;;;;;;5038560;28;20443;-48
2023/07/05 00:32:56;;;;;;;13.63;4.10;;;14.70;90.30;;;;;;5055474;28;20577;-46
2023/07/05 00:35:25;;;;;;;12.50;3.17;;;14.70;90.20;;;;;;5055736;28;20029;-45
2023/07/05 00:37:52;;;;;;;10.57;3.38;;;14.70;90.20;;;;;;5055742;28;20029;-46
2023/07/05 00:40:19;;;;;;;12.77;3.42;;;14.60;90.10;;;;;;5067330;28;20082;-45
2023/07/05 00:42:45;;;;;;;8.10;3.42;;;14.70;90.00;;;;;;5075424;28;20044;-45
2023/07/05 00:45:16;;;;;;;9.48;3.30;;;14.60;89.80;;;;;;5075797;28;20572;-45
2023/07/05 00:47:46;;;;;;;9.88;3.53;;;14.60;89.70;;;;;;5075583;28;20024;-46
2023/07/05 00:50:35;;;;;;;10.57;4.43;;;14.60;89.70;;;;;;5058874;28;20029;-45
2023/07/05 00:53:03;;;;;;;9.77;3.88;;;14.60;89.40;;;;;;5053682;28;20029;-46
2023/07/05 00:55:30;;;;;;;10.25;4.05;;;14.60;89.20;;;;;;5071316;28;20075;-44
2023/07/05 00:57:59;;;;;;;9.07;3.53;;;14.70;89.20;;;;;;5064227;28;20037;-47
2023/07/05 01:00:27;;;;;;;8.23;3.13;;;14.70;89.10;;;;;;5054877;28;20021;-51
2023/07/05 01:02:58;;;;;;;11.88;3.83;;;14.70;89.30;;;;;;5054433;28;20016;-45
2023/07/05 01:05:28;;;;;;;8.88;3.10;;;14.70;89.00;;;;;;5053968;28;20028;-45
2023/07/05 01:07:55;;;;;;;8.75;3.40;;;14.70;89.00;;;;;;5057237;28;20020;-45
2023/07/05 01:10:25;;;;;;;9.95;3.75;;;14.70;88.80;;;;;;5074239;28;20037;-44
2023/07/05 01:13:06;;;;;;;12.52;4.20;;;14.70;88.70;;;;;;5072376;28;20037;-44
2023/07/05 01:16:05;;;;;;;9.90;3.70;;;14.70;88.60;;;;;;5071552;28;21355;-45
2023/07/05 01:18:46;;;;;;;9.23;3.77;;;14.70;88.50;;;;;;5055016;28;20037;-44
2023/07/05 01:21:28;;;;;;;10.63;3.78;;;14.70;88.50;;;;;;5036866;28;20060;-45
2023/07/05 01:24:16;;;;;;;11.27;4.72;;;14.70;88.40;;;;;;5066439;28;20337;-45
2023/07/05 01:26:50;;;;;;;15.43;4.72;;;14.70;88.30;;;;;;5059330;28;20406;-43
2023/07/05 01:29:37;;;;;;;10.20;4.35;;;14.80;88.20;;;;;;5054911;28;20082;-46
2023/07/05 01:32:21;;;;;;;11.63;4.80;;;14.80;88.10;;;;;;5066445;28;20056;-46
2023/07/05 01:34:57;;;;;;;13.02;4.40;;;14.80;88.10;;;;;;5073464;28;20626;-46
2023/07/05 01:37:37;;;;;;;12.32;4.80;;;14.80;87.90;;;;;;5054750;28;20111;-48
2023/07/05 01:40:15;;;;;;;10.55;4.50;;;14.80;88.00;;;;;;5052151;28;20037;-45
2023/07/05 01:42:44;;;;;;;11.27;4.55;;;14.90;88.10;;;;;;5053050;28;20033;-45
2023/07/05 01:45:12;;;;;;;9.90;6.07;;;14.90;88.20;;;;;;5054475;28;20021;-47
2023/07/05 01:48:14;;;;;;;14.93;5.10;;;14.80;88.30;;;;;;5070008;28;20040;-46
2023/07/05 01:50:51;;;;;;;12.52;4.95;;;14.90;88.70;;;;;;5053661;28;20086;-50
2023/07/05 01:53:35;;;;;;;16.67;6.32;;;14.80;89.00;;;;;;5054908;28;20412;-47
2023/07/05 01:56:07;;;;;;;13.55;5.53;;;14.80;89.10;;;;;;5054467;28;20058;-46
2023/07/05 01:58:43;;;;;;;11.77;5.75;;;14.80;89.40;;;;;;5054028;28;20502;-46
2023/07/05 02:01:13;;;;;;;11.98;7.50;;;14.70;89.50;;;;;;5073328;28;20627;-48
2023/07/05 02:03:49;;;;;;;16.70;6.35;;;14.70;89.60;;;;;;5071137;28;20388;-46
2023/07/05 02:06:16;;;;;;;13.75;5.90;;;14.70;89.60;;;;;;5054197;28;20032;-46
2023/07/05 02:08:45;;;;;;;16.05;7.07;;;14.70;89.90;;;;;;5054205;28;20530;-45
2023/07/05 02:11:11;;;;;;;14.00;6.53;;;14.70;90.10;;;;;;5084622;28;20131;-45
2023/07/05 02:13:41;;;;;;;15.68;7.38;;;14.70;90.10;;;;;;5078609;28;20036;-46
2023/07/05 02:16:08;;;;;;;13.25;5.90;;;14.60;90.00;;;;;;5073622;28;20093;-45
2023/07/05 02:18:36;;;;;;;12.30;6.47;;;14.60;90.00;;;;;;5073407;28;20774;-45
2023/07/05 02:21:08;;;;;;;14.48;6.60;;;14.60;89.50;;;;;;5061463;28;20466;-47
2023/07/05 02:23:35;;;;;;;12.95;6.35;;;14.70;89.20;;;;;;5054641;28;20829;-45
2023/07/05 02:26:05;;;;;;;10.88;5.07;;;14.70;88.80;;;;;;5051680;28;20481;-44
2023/07/05 02:28:33;;;;;;;10.77;6.47;;;14.70;88.50;;;;;;5053570;28;20025;-44
2023/07/05 02:31:04;;;;;;;15.10;5.75;;;14.80;88.50;;;;;;5053452;28;20052;-46
2023/07/05 02:33:31;;;;;;;15.35;6.30;;;14.80;88.20;;;;;;5053555;28;20029;-47
2023/07/05 02:35:58;;;;;;;13.77;6.53;;;14.80;88.20;;;;;;5053335;28;20040;-45
2023/07/05 02:38:27;;;;;;;10.95;6.47;;;14.80;88.00;;;;;;5062954;28;20021;-45
2023/07/05 02:40:53;;;;;;;10.65;5.72;;;14.80;88.00;;;;;;5070675;28;20718;-45
2023/07/05 02:43:19;;;;;;;13.77;6.95;;;14.80;87.90;;;;;;5053063;28;20044;-44
2023/07/05 02:45:48;;;;;;;11.07;6.63;;;14.80;87.90;;;;;;5054042;28;20032;-47
2023/07/05 02:48:14;;;;;;;13.67;6.30;;;14.80;87.80;;;;;;5052944;28;20370;-54
2023/07/05 02:50:40;;;;;;;11.02;6.85;;;14.80;87.90;;;;;;5053143;28;20047;-49
2023/07/05 02:53:09;;;;;;;11.38;6.72;;;14.80;88.30;;;;;;5062549;28;20029;-48
2023/07/05 02:55:36;;;;;;;13.05;6.22;;;14.90;88.80;;;;;;5064105;28;20466;-50
2023/07/05 02:58:02;;;;;;;20.10;7.38;;;14.80;89.10;;;;;;5061419;28;20050;-50
2023/07/05 03:00:29;;;;;;;10.50;6.85;;;14.70;89.20;;;;;;5072327;28;20024;-55
2023/07/05 03:02:59;;;;;;;15.57;7.95;;;14.60;89.50;;;;;;5062922;28;20027;-50
2023/07/05 03:05:26;;;;;;;14.15;8.18;;;14.50;89.90;;;;;;5072108;28;20028;-49
2023/07/05 03:07:56;;;;;;;15.45;7.60;;;14.50;90.30;;;;;;5055440;28;20033;-49
2023/07/05 03:10:23;;;;;;;;;;;14.40;90.60;;;;;;5053328;28;20036;-49
2023/07/05 03:12:51;;;;;;;11.85;8.57;;;14.40;91.00;;;;;;5052564;28;20219;-48
2023/07/05 03:15:18;;;;;;;15.05;9.73;;;14.40;91.40;;;;;;5054406;28;20047;-48
2023/07/05 03:17:45;;;;;;;16.20;8.70;;;14.30;91.40;;;;;;5048830;28;20053;-50
2023/07/05 03:20:11;;;;;;;15.55;9.02;;;14.30;91.70;;;;;;5052664;28;20603;-50
2023/07/05 03:22:38;;;;;;;16.77;9.50;;;14.30;92.00;;;;;;5051438;28;20434;-50
2023/07/05 03:25:05;;;;;;;15.50;10.02;;;14.30;92.20;;;;;;5035206;28;20035;-48
2023/07/05 03:27:32;;;;;;;14.65;9.35;;;14.30;92.40;;;;;;5034291;28;20448;-49
2023/07/05 03:29:59;;;;;;;12.27;9.02;;;14.20;92.40;;;;;;5032787;28;20418;-51
2023/07/05 03:32:26;;;;;;;18.27;8.88;;;14.20;92.50;;;;;;5047238;28;20091;-49
2023/07/05 03:34:53;;;;;;;21.45;10.82;;;14.20;92.70;;;;;;5032872;28;20025;-49
2023/07/05 03:37:19;;;;;;;15.30;9.40;;;14.10;92.80;;;;;;5032600;28;20331;-48
2023/07/05 03:39:50;;;;;;;17.25;10.15;;;14.10;93.00;;;;;;5047744;28;20025;-49
2023/07/05 03:42:20;;;;;;;19.85;10.25;;;14.10;93.00;;;;;;5052400;28;20021;-48
2023/07/05 03:44:46;;;;;;;;;;;14.00;93.10;;;;;;5052278;28;20108;-49
2023/07/05 03:47:13;;;;;;;13.63;9.27;;;14.00;93.20;;;;;;5053675;28;20258;-49
2023/07/05 03:49:39;;;;;;;18.63;11.45;;;14.00;93.30;;;;;;5033914;28;20052;-48
2023/07/05 03:52:06;;;;;;;16.42;11.05;;;14.00;93.50;;;;;;5052083;28;20478;-51
2023/07/05 03:54:33;;;;;;;18.23;11.45;;;14.00;93.60;;;;;;5048590;28;20103;-49
2023/07/05 03:56:58;;;;;;;17.30;10.70;;;14.00;93.70;;;;;;5051326;28;20025;-49
2023/07/05 03:59:24;;;;;;;14.32;10.77;;;14.00;93.80;;;;;;5051730;28;20410;-48
2023/07/05 04:01:51;;;;;;;14.27;10.70;;;14.00;93.70;;;;;;5049554;28;20086;-48
2023/07/05 04:04:18;;;;;;;14.30;10.40;;;14.00;93.80;;;;;;5039487;28;20169;-48
2023/07/05 04:06:45;;;;;;;15.57;10.35;;;13.90;93.90;;;;;;5036028;28;20037;-50
2023/07/05 04:09:12;;;;;;;18.42;10.95;;;13.90;93.90;;;;;;5051283;28;20056;-47
2023/07/05 04:11:41;;;;;;;18.00;11.15;;;14.00;94.00;;;;;;5041816;28;20021;-47
2023/07/05 04:14:12;;;;;;;15.13;11.38;;;13.90;94.00;;;;;;5031147;28;20354;-47
2023/07/05 04:16:39;;;;;;;16.08;11.45;;;13.90;93.90;;;;;;5042594;28;20128;-46
2023/07/05 04:19:04;;;;;;;19.98;11.93;;;14.00;93.90;;;;;;5057342;28;20025;-47
2023/07/05 04:21:35;;;;;;;17.70;11.15;;;13.90;93.90;;;;;;5061197;28;20025;-47
2023/07/05 04:24:02;;;;;;;16.52;10.77;;;14.00;93.90;;;;;;5060072;28;20032;-45
2023/07/05 04:26:30;;;;;;;15.02;11.43;;;14.00;93.90;;;;;;5075749;28;20032;-50
2023/07/05 04:28:56;;;;;;;20.30;12.35;;;14.00;93.90;;;;;;5075935;28;20020;-47
2023/07/05 04:31:29;;;;;;;14.13;11.32;;;14.00;93.90;;;;;;5076028;28;20036;-49
2023/07/05 04:33:58;;;;;;;19.50;10.93;;;14.00;94.00;;;;;;5061308;28;20036;-52
2023/07/05 04:36:25;;;;;;;16.35;11.95;;;14.00;94.10;;;;;;5069175;28;20025;-50
2023/07/05 04:38:52;;;;;;;15.15;11.27;;;14.00;94.30;;;;;;5038969;28;20178;-48
2023/07/05 04:41:19;;;;;;;16.20;12.23;;;14.00;94.40;;;;;;5067085;28;20028;-51
2023/07/05 04:43:51;;;;;;;18.42;12.00;;;14.10;94.50;;;;;;5056254;28;20017;-48
2023/07/05 04:46:20;;;;;;;18.98;11.90;;;14.10;94.50;;;;;;5070448;28;20408;-51
2023/07/05 04:48:49;;;;;;;18.88;12.52;;;14.10;94.60;;;;;;5065981;28;20037;-49
2023/07/05 04:51:19;;;;;;;15.93;12.85;;;14.10;94.60;;;;;;5055288;28;20033;-53
2023/07/05 04:53:46;;;;;;;15.73;12.00;;;14.10;94.70;;;;;;5055310;28;20044;-48
2023/07/05 04:56:15;;;;;;;15.30;12.25;;;14.00;94.60;;;;;;5074146;28;20364;-50
2023/07/05 04:58:42;;;;;;;24.03;13.67;;;14.00;94.80;;;;;;5059642;28;20059;-52
2023/07/05 05:01:10;;;;;;;28.05;14.07;;;14.00;94.90;;;;;;5060047;28;20044;-53
2023/07/05 05:03:38;;;;;;;23.58;12.30;;;14.00;95.00;;;;;;5074983;28;20021;-47
2023/07/05 05:06:05;;;;;;;19.63;12.98;;;14.00;95.00;;;;;;5067617;28;20450;-48
2023/07/05 05:08:34;;;;;;;17.70;13.02;;;14.00;95.20;;;;;;5073875;28;20029;-46
2023/07/05 05:11:04;;;;;;;14.75;12.13;;;14.10;95.20;;;;;;5073109;28;20059;-48
2023/07/05 05:13:33;;;;;;;16.58;12.07;;;14.10;95.10;;;;;;5070087;28;20036;-46
2023/07/05 05:16:00;;;;;;;18.80;13.07;;;14.10;95.20;;;;;;5054866;28;20492;-46
2023/07/05 05:18:37;;;;;;;25.45;13.55;;;14.20;95.20;;;;;;5062138;28;20063;-46
2023/07/05 05:21:05;;;;;;;17.70;12.95;;;14.20;95.20;;;;;;5075127;28;20107;-46
2023/07/05 05:23:32;;;;;;;22.63;13.63;;;14.30;95.20;;;;;;5068965;28;20029;-45
2023/07/05 05:25:59;;;;;;;22.30;13.88;;;14.30;95.20;;;;;;5071585;28;20513;-48
2023/07/05 05:28:26;;;;;;;20.88;13.25;;;14.40;95.20;;;;;;5057212;28;20052;-46
2023/07/05 05:31:03;;;;;;;18.25;13.52;;;14.40;95.20;;;;;;5053966;28;20029;-46
2023/07/05 05:33:29;;;;;;;23.70;13.25;;;14.50;95.10;;;;;;5033331;28;20021;-45
2023/07/05 05:35:59;;;;;;;18.73;13.05;;;14.40;95.00;;;;;;5054910;28;20035;-46
2023/07/05 05:38:25;;;;;;;17.02;13.13;;;14.50;95.00;;;;;;5053882;28;20033;-45
2023/07/05 05:40:52;;;;;;;15.48;11.23;;;14.60;95.00;;;;;;5068272;28;20039;-45
2023/07/05 05:43:19;;;;;;;15.50;11.68;;;14.60;95.00;;;;;;5052132;28;20449;-47
2023/07/05 05:45:46;;;;;;;16.55;12.13;;;14.70;94.80;;;;;;5054486;28;20029;-45
2023/07/05 05:48:14;;;;;;;18.33;12.27;;;14.70;94.70;;;;;;5052233;28;20103;-45
2023/07/05 05:50:40;;;;;;;16.15;11.43;;;14.60;94.50;;;;;;5056678;28;20040;-46
2023/07/05 05:53:10;;;;;;;15.93;12.68;;;14.60;94.60;;;;;;5054560;28;20036;-47
2023/07/05 05:55:38;;;;;;;15.15;12.85;;;14.60;94.70;;;;;;5064493;28;20043;-46
2023/07/05 05:58:05;;;;;;;16.40;12.15;;;14.60;94.70;;;;;;5058668;28;20443;-45
2023/07/05 06:00:36;;;;;;;13.85;10.57;;;14.60;94.80;;;;;;5054948;28;20021;-48
2023/07/05 06:03:03;;;;;;;16.73;12.13;;;14.60;94.80;;;;;;5073894;28;20104;-44
2023/07/05 06:05:34;;;;;;;17.38;11.98;;;14.60;94.80;;;;;;5073958;28;20024;-46
2023/07/05 06:08:00;;;;;;;15.70;11.52;;;14.60;94.90;;;;;;5053816;28;20092;-46
2023/07/05 06:10:27;;;;;;;13.75;12.40;;;14.60;95.00;;;;;;5060184;28;20043;-46
2023/07/05 06:12:54;;;;;;;15.90;12.30;;;14.60;94.90;;;;;;5073010;28;20031;-45
2023/07/05 06:15:23;;;;;;;20.30;12.82;;;14.60;95.00;;;;;;5073548;28;20024;-45
2023/07/05 06:17:51;;;;;;;15.15;11.52;;;14.70;95.00;;;;;;5072580;28;20676;-44
2023/07/05 06:20:18;;;;;;;14.52;11.38;;;14.70;95.10;;;;;;5053812;28;20462;-45
2023/07/05 06:22:47;;;;;;;18.15;11.75;;;14.80;95.10;;;;;;5053566;28;20085;-46
2023/07/05 06:25:14;;;;;;;14.93;11.45;;;14.80;95.10;;;;;;5053469;28;20033;-46
2023/07/05 06:27:40;;;;;;;18.52;13.15;;;14.80;95.10;;;;;;5072381;28;20029;-44
2023/07/05 06:30:07;;;;;;;13.40;10.57;;;14.90;95.10;;;;;;5073913;28;20039;-45
2023/07/05 06:32:35;;;;;;;17.02;11.60;;;14.90;95.20;;;;;;5071310;28;20028;-44
2023/07/05 06:35:02;;;;;;;12.82;11.52;;;14.90;95.20;;;;;;5052971;28;20120;-43
2023/07/05 06:37:31;;;;;;;13.90;11.55;;;15.00;95.20;;;;;;5052517;28;20032;-43
2023/07/05 06:40:00;;;;;;;15.98;11.00;;;15.10;95.10;;;;;;5036855;28;20041;-44
2023/07/05 06:42:27;;;;;;;15.95;11.35;;;15.10;95.20;;;;;;5071401;28;20070;-47
2023/07/05 06:44:54;;;;;;;14.00;10.50;;;15.20;95.20;;;;;;5055600;28;20031;-43
2023/07/05 06:47:21;;;;;;;14.07;10.50;;;15.20;95.10;;;;;;5073216;28;20020;-45
2023/07/05 06:49:46;;;;;;;11.90;10.70;;;15.30;95.10;;;;;;5049851;28;20043;-45
2023/07/05 06:52:12;;;;;;;11.60;9.93;;;15.30;95.10;;;;;;5072959;28;20024;-45
2023/07/05 06:54:39;;;;;;;9.60;8.60;;;15.30;94.90;;;;;;5055442;28;20039;-43
2023/07/05 06:57:06;;;;;;;9.60;8.20;;;15.20;94.50;;;;;;5068675;28;20039;-44
2023/07/05 06:59:33;;;;;;;10.40;5.35;;;15.20;94.10;;;;;;5071896;28;20032;-45
2023/07/05 07:02:02;;;;;;;7.63;5.47;;;15.10;93.10;;;;;;5067380;28;20025;-45
2023/07/05 07:04:30;;;;;;;6.72;4.60;;;15.00;92.00;;;;;;5072713;28;20071;-45
2023/07/05 07:06:58;;;;;;;6.70;4.28;;;14.90;91.30;;;;;;5072991;28;20086;-47
2023/07/05 07:09:23;;;;;;;5.53;4.10;;;15.00;91.00;;;;;;5056499;28;20043;-47
2023/07/05 07:11:50;;;;;;;6.20;3.53;;;15.00;90.50;;;;;;5066158;28;20032;-44
2023/07/05 07:14:17;;;;;;;5.45;3.50;;;14.90;89.00;;;;;;5072896;28;20024;-43
2023/07/05 07:16:44;;;;;;;7.80;3.60;;;14.90;88.80;;;;;;5052790;28;20049;-44
2023/07/05 07:19:11;;;;;;;7.85;3.67;;;15.00;88.30;;;;;;5051723;28;20021;-44
2023/07/05 07:21:38;;;;;;;7.38;4.30;;;15.10;87.60;;;;;;5052306;28;20036;-46
2023/07/05 07:24:05;;;;;;;5.43;4.18;;;15.20;87.80;;;;;;5052455;28;20025;-44
2023/07/05 07:26:32;;;;;;;6.18;4.00;;;15.30;87.40;;;;;;5065941;28;20025;-43
2023/07/05 07:28:59;;;;;;;5.38;3.88;;;15.30;86.80;;;;;;5072339;28;20326;-46
2023/07/05 07:31:29;;;;;;;6.78;3.97;;;15.30;86.40;;;;;;5071504;28;20032;-44
2023/07/05 07:33:56;;;;;;;4.50;3.30;;;15.40;86.90;;;;;;5066035;28;20166;-44
2023/07/05 07:36:27;;;;;;;5.35;3.67;;;15.40;86.80;;;;;;5052794;28;20037;-44
2023/07/05 07:38:55;;;;;;;6.20;3.53;;;15.60;86.20;;;;;;5052770;28;20029;-45
2023/07/05 07:41:32;;;;;;;4.82;3.42;;;15.80;85.60;;;;;;5052441;28;20465;-45
2023/07/05 07:44:05;;;;;;;5.97;3.40;;;16.00;86.30;;;;;;5072617;28;20028;-45
2023/07/05 07:46:35;;;;;;;5.85;4.00;;;16.30;83.80;;;;;;5072855;28;20025;-44
2023/07/05 07:49:02;;;;;;;4.30;3.08;;;16.30;81.30;;;;;;5056363;28;20025;-48
2023/07/05 07:51:32;;;;;;;4.30;2.95;;;16.50;80.50;;;;;;5067067;28;20056;-46
2023/07/05 07:54:01;;;;;;;5.45;2.75;;;16.70;80.20;;;;;;5070556;28;20025;-44
2023/07/05 07:56:32;;;;;;;5.80;2.63;;;16.70;79.90;;;;;;5064679;28;20430;-45
2023/07/05 07:59:00;;;;;;;5.70;2.78;;;16.50;79.30;;;;;;5057824;28;20371;-46
2023/07/05 08:01:32;;;;;;;4.75;3.08;;;16.40;79.00;;;;;;5068105;28;20043;-46
2023/07/05 08:04:02;;;;;;;8.07;2.85;;;16.20;79.90;;;;;;5062768;28;20082;-45
2023/07/05 08:06:35;;;;;;;5.70;3.22;;;16.00;80.50;;;;;;5056299;28;20027;-47
2023/07/05 08:09:00;;;;;;;7.32;3.53;;;16.10;80.20;;;;;;5055870;28;20033;-46
2023/07/05 08:11:29;;;;;;;7.15;3.15;;;16.20;80.80;;;;;;5062310;28;20363;-47
2023/07/05 08:13:56;;;;;;;7.32;3.17;;;16.90;80.90;;;;;;5069092;28;20029;-46
2023/07/05 08:16:23;;;;;;;5.65;3.47;;;17.50;78.30;;;;;;5058790;28;20482;-46
2023/07/05 08:18:51;;;;;;;7.32;3.28;;;18.00;74.80;;;;;;5055982;28;20043;-47
2023/07/05 08:21:20;;;;;;;6.43;2.97;;;18.00;73.20;;;;;;5055665;28;20033;-47
2023/07/05 08:23:47;;;;;;;6.47;2.88;;;18.00;72.70;;;;;;5038060;28;20123;-48
2023/07/05 08:26:14;;;;;;;5.65;2.97;;;18.00;72.30;;;;;;5062041;28;20024;-49
2023/07/05 08:28:42;;;;;;;8.48;3.28;;;18.10;73.90;;;;;;5066680;28;20431;-47
2023/07/05 08:31:09;;;;;;;4.60;2.65;;;18.30;71.90;;;;;;5054988;28;20067;-46
2023/07/05 08:33:37;;;;;;;4.95;2.85;;;18.50;71.00;;;;;;5055830;28;20029;-46
2023/07/05 08:36:15;;;;;;;8.18;3.58;;;18.50;70.10;;;;;;5055525;28;20862;-46
2023/07/05 08:38:50;;;;;;;6.57;3.50;;;18.10;71.60;;;;;;5055275;28;20108;-46
2023/07/05 08:41:40;;;;;;;5.68;3.25;;;18.40;71.70;;;;;;5063396;28;20036;-46
2023/07/05 08:44:30;;;;;;;5.57;3.03;;;18.90;68.70;;;;;;5055478;28;20029;-45
2023/07/05 08:47:07;;;;;;;7.57;3.75;;;19.00;68.30;;;;;;5055328;28;20025;-46
2023/07/05 08:49:58;;;;;;;8.20;3.58;;;18.50;68.90;;;;;;5054170;28;20203;-47
2023/07/05 08:52:32;;;;;;;5.53;2.67;;;18.40;69.30;;;;;;5057622;28;20025;-47
2023/07/05 08:55:08;;;;;;;6.00;3.08;;;18.70;67.60;;;;;;5074159;28;20029;-49
2023/07/05 08:57:50;;;;;;;5.30;2.80;;;18.90;67.60;;;;;;5068423;28;20017;-46
2023/07/05 09:00:26;;;;;;;5.70;3.00;;;19.10;67.50;;;;;;5054684;28;20035;-47
2023/07/05 09:02:57;;;;;;;5.40;2.88;;;19.00;65.30;;;;;;5073713;28;20017;-49
2023/07/05 09:05:33;;;;;;;6.90;2.50;;;19.40;64.90;;;;;;5059844;28;20025;-48
2023/07/05 09:08:22;;;;;;;5.95;2.20;;;19.60;64.50;;;;;;5054148;28;20024;-47
2023/07/05 09:11:15;;;;;;;4.15;2.28;;;19.90;63.40;;;;;;5068197;28;20029;-49
2023/07/05 09:13:42;;;;;;;6.25;2.38;;;19.90;61.10;;;;;;5054940;28;20029;-46
2023/07/05 09:16:43;;;;;;;9.70;2.85;;;19.40;63.00;;;;;;5054576;28;20450;-47
2023/07/05 09:19:27;;;;;;;5.38;2.20;;;18.90;64.10;;;;;;5058379;28;20032;-51
2023/07/05 09:22:01;;;;;;;12.38;2.55;;;18.40;64.40;;;;;;5055392;28;20129;-46
2023/07/05 09:24:40;;;;;;;8.85;2.10;;;18.00;66.50;;;;;;5069029;28;20027;-46
2023/07/05 09:27:31;;;;;;;5.13;1.90;;;17.50;67.70;;;;;;5074300;28;20024;-46
2023/07/05 09:30:20;;;;;;;10.13;2.30;;;17.30;67.90;;;;;;5039291;28;20621;-46
2023/07/05 09:33:02;;;;;;;7.25;2.00;;;17.90;70.00;;;;;;5075654;28;20032;-48
2023/07/05 09:35:34;;;;;;;8.73;2.15;;;17.90;67.90;;;;;;5055803;28;20033;-47
2023/07/05 09:38:25;;;;;;;6.00;1.75;;;17.70;67.40;;;;;;5054409;28;20477;-47
2023/07/05 09:41:09;;;;;;;5.18;2.17;;;17.40;68.70;;;;;;5053306;28;20060;-47
2023/07/05 09:43:36;;;;;;;5.63;1.45;;;17.40;70.30;;;;;;5066199;28;20048;-48
2023/07/05 09:46:31;;;;;;;5.53;1.50;;;17.30;69.20;;;;;;5071251;28;20060;-48
2023/07/05 09:48:59;;;;;;;4.10;1.70;;;17.40;68.40;;;;;;5051923;28;20021;-47
2023/07/05 09:51:27;;;;;;;3.65;1.65;;;17.30;69.80;;;;;;5054157;28;20025;-47
2023/07/05 09:54:07;;;;;;;6.32;1.88;;;17.30;69.20;;;;;;5058279;28;20488;-46
2023/07/05 09:56:32;;;;;;;5.90;2.17;;;16.90;68.50;;;;;;5059008;28;20029;-47
2023/07/05 09:59:15;;;;;;;5.93;1.80;;;16.50;70.60;;;;;;5055331;28;20423;-52
2023/07/05 10:01:47;;;;;;;6.65;1.77;;;16.30;72.00;;;;;;5053822;28;20029;-47
2023/07/05 10:04:26;;;;;;;2.08;1.15;;;16.20;71.30;;;;;;5054989;28;20021;-47
2023/07/05 10:06:54;;;;;;;2.60;1.60;;;16.30;72.30;;;;;;5054156;28;20343;-48
2023/07/05 10:09:24;;;;;;;4.20;1.50;;;16.30;71.50;;;;;;5062688;28;20040;-47
2023/07/05 10:11:54;;;;;;;3.45;1.20;;;16.20;72.10;;;;;;5072467;28;20089;-47
2023/07/05 10:14:28;;;;;;;7.68;2.38;;;16.10;70.80;;;;;;5061307;28;20505;-50
2023/07/05 10:17:03;;;;;;;5.07;1.52;;;15.90;72.10;;;;;;5053640;28;20434;-48
2023/07/05 10:19:32;;;;;;;4.22;1.45;;;15.80;72.30;;;;;;5053673;28;20031;-48
2023/07/05 10:22:04;;;;;;;3.20;1.15;;;15.50;73.50;;;;;;5054965;28;20028;-47
2023/07/05 10:24:43;;;;;;;3.35;0.85;;;15.30;74.80;;;;;;5069556;28;20035;-48
2023/07/05 10:27:23;;;;;;;3.50;1.20;;;15.20;74.80;;;;;;5072197;28;20063;-47
2023/07/05 10:30:05;;;;;;;4.22;1.50;;;15.20;75.60;;;;;;5054860;28;20036;-49
2023/07/05 10:32:32;;;;;;;5.82;1.42;;;15.20;75.50;;;;;;5035520;28;20124;-46
2023/07/05 10:35:00;;;;;;;9.70;1.48;;;15.20;76.40;;;;;;5053424;28;20025;-48
2023/07/05 10:37:29;;;;;;;6.57;1.67;;;15.20;76.90;;;;;;5053942;28;20036;-48
2023/07/05 10:39:57;;;;;;;4.15;1.25;;;15.10;77.60;;;;;;5070618;28;20079;-46
2023/07/05 10:42:25;;;;;;;8.43;1.85;;;15.00;78.80;;;;;;5060096;28;20025;-46
2023/07/05 10:44:52;;;;;;;5.32;1.38;;;14.90;79.30;;;;;;5052582;28;20421;-44
2023/07/05 10:47:19;;;;;;;2.83;1.15;;;14.60;79.80;;;;;;5053266;28;20025;-44
2023/07/05 10:49:50;;;;;;;3.00;1.10;;;14.40;81.30;;;;;;5053771;28;20036;-42
2023/07/05 10:52:18;;;;;;;7.03;1.10;;;14.30;81.60;;;;;;5052831;28;20880;-43
2023/07/05 10:55:07;;;;;;;2.00;0.85;;;14.20;82.20;;;;;;5070074;28;20039;-45
2023/07/05 10:57:40;;;;;;;3.88;1.33;;;14.20;82.60;;;;;;5053195;28;20032;-46
2023/07/05 11:00:23;;;;;;;3.55;1.08;;;14.10;83.90;;;;;;5035306;28;20378;-50
2023/07/05 11:03:09;;;;;;;6.28;1.45;;;14.10;84.30;;;;;;5064205;28;20078;-49
2023/07/05 11:05:55;;;;;;;4.25;1.20;;;14.00;84.20;;;;;;5073147;28;20398;-51
2023/07/05 11:08:37;;;;;;;3.38;1.13;;;13.90;85.40;;;;;;5072573;28;20043;-53
2023/07/05 11:11:18;;;;;;;4.80;1.92;;;13.80;85.90;;;;;;5066122;28;20397;-51
2023/07/05 11:13:48;;;;;;;3.38;1.20;;;13.70;86.60;;;;;;5073135;28;20028;-52
2023/07/05 11:16:24;;;;;;;6.15;1.20;;;13.70;86.70;;;;;;5072748;28;20056;-48
2023/07/05 11:19:06;;;;;;;3.38;1.13;;;13.70;87.10;;;;;;5051934;28;20407;-48
2023/07/05 11:21:52;;;;;;;2.92;1.15;;;13.70;87.00;;;;;;5050832;28;20439;-47
2023/07/05 11:24:55;;;;;;;4.85;1.40;;;13.70;86.30;;;;;;5044686;28;20037;-46
2023/07/05 11:27:41;;;;;;;6.65;1.52;;;13.70;85.90;;;;;;5059545;28;20029;-46
2023/07/05 11:30:37;;;;;;;7.18;1.30;;;13.90;84.20;;;;;;5059187;28;20465;-47
2023/07/05 11:33:06;;;;;;;2.08;0.90;;;13.90;83.80;;;;;;5059116;28;20025;-45
2023/07/05 11:35:41;;;;;;;6.93;1.83;;;14.00;84.10;;;;;;5058824;28;20087;-45
2023/07/05 11:38:08;;;;;;;12.98;1.80;;;14.10;83.90;;;;;;5066585;28;20024;-44
2023/07/05 11:41:07;;;;;;;12.20;1.40;;;14.20;83.20;;;;;;5078097;28;20455;-46
2023/07/05 11:43:42;;;;;;;4.95;1.38;;;14.30;83.10;;;;;;5043313;28;20036;-44
2023/07/05 11:46:45;;;;;;;8.07;1.33;;;14.30;82.80;;;;;;5074676;28;20021;-43
2023/07/05 11:49:20;;;;;;;8.82;1.10;;;14.40;83.10;;;;;;5079133;28;20078;-44
2023/07/05 11:51:49;;;;;;;4.53;1.52;;;14.60;82.60;;;;;;5074937;28;20028;-43
2023/07/05 11:54:19;;;;;;;6.45;1.35;;;14.70;82.70;;;;;;5079021;28;20039;-44
2023/07/05 11:56:49;;;;;;;;;;;14.90;82.20;;;;;;5070045;28;20043;-44
2023/07/05 11:59:21;;;;;;;;;;;14.90;82.40;;;;;;5059115;28;19947;-46
2023/07/05 12:01:48;;;;;;;3.63;1.23;;;14.80;82.70;;;;;;5067601;28;20306;-44
2023/07/05 12:04:23;;;;;;;4.10;1.00;;;14.80;82.90;;;;;;5079058;28;20028;-44
2023/07/05 12:06:53;;;;;;;9.90;1.55;;;14.90;82.80;;;;;;5059481;28;20399;-43
2023/07/05 12:09:32;;;;;;;7.32;1.88;;;14.80;83.20;;;;;;5075521;28;20107;-44
2023/07/05 12:12:00;;;;;;;5.32;1.60;;;14.70;83.30;;;;;;5059582;28;20040;-43
2023/07/05 12:14:27;;;;;;;6.85;1.95;;;14.60;83.20;;;;;;5058912;28;20028;-44
2023/07/05 12:16:56;;;;;;;5.40;1.40;;;14.50;83.80;;;;;;5046018;28;20068;-44
2023/07/05 12:19:30;;;;;;;7.43;1.88;;;14.50;84.10;;;;;;5020837;28;20512;-46
2023/07/05 12:22:06;;;;;;;7.28;1.55;;;14.60;84.10;;;;;;5017703;28;20041;-44
2023/07/05 12:24:45;;;;;;;5.30;1.90;;;14.70;84.40;;;;;;5033834;28;20354;-46
2023/07/05 12:27:27;;;;;;;8.90;2.08;;;14.90;84.10;;;;;;5020100;28;20104;-45
2023/07/05 12:30:00;;;;;;;8.13;2.00;;;15.00;84.30;;;;;;5020597;28;20037;-45
2023/07/05 12:32:28;;;;;;;6.22;2.65;;;15.00;83.70;;;;;;5035358;28;20034;-46
2023/07/05 12:35:28;;;;;;;6.30;2.15;;;15.00;83.90;;;;;;5033406;28;20033;-46
2023/07/05 12:37:58;;;;;;;9.00;2.95;;;15.00;84.00;;;;;;4941872;29;20512;-45
2023/07/05 12:40:34;;;;;;;6.03;1.98;;;15.10;84.00;;;;;;4939606;29;20107;-46
2023/07/05 12:43:04;;;;;;;5.90;1.60;;;15.20;83.70;;;;;;4936030;29;20110;-47
2023/07/05 12:45:48;;;;;;;6.75;1.35;;;15.40;84.00;;;;;;4936319;29;20023;-46
2023/07/05 12:48:32;;;;;;;7.25;1.83;;;15.70;83.10;;;;;;4952140;29;20328;-46
2023/07/05 12:51:01;;;;;;;4.40;1.23;;;16.10;82.70;;;;;;4953807;28;20126;-47
2023/07/05 12:53:27;;;;;;;4.37;1.67;;;16.30;81.60;;;;;;4936001;29;20043;-48
2023/07/05 12:56:11;;;;;;;4.90;2.42;;;16.40;79.60;;;;;;4936518;29;20494;-46
2023/07/05 12:59:06;;;;;;;6.70;1.60;;;16.60;80.00;;;;;;4943850;29;20409;-47
2023/07/05 13:01:40;;;;;;;5.85;2.13;;;16.90;79.80;;;;;;4954963;29;20066;-46
2023/07/05 13:04:13;;;;;;;4.10;1.08;;;17.40;79.30;;;;;;4954052;29;20074;-47